< Typhoon 196107 1961 Season Typhoon 196109 >
Typhoon 196108 (ELSIE)
General InformationTrack Information on Google Maps || Disaster Info.ResourceGoogle EarthGE AnimationAtom FeedGeoJSON
Detalied Best Track (Time Zone = UTC)
Year Month Day Hour Lat. Long. Pressure (hPa) Wind (kt) Class Image Chart
1961 7 6 12 10.0 147.0 1010 0 2 -- Chart
1961 7 6 18 10.0 146.0 1008 0 2 -- Chart
1961 7 7 00 10.5 145.5 1010 0 2 -- Chart
1961 7 7 06 11.0 145.0 1008 0 2 -- Chart
1961 7 7 12 11.4 144.3 1010 0 2 -- Chart
1961 7 7 18 11.5 143.4 1008 0 2 -- Chart
1961 7 8 00 11.8 141.7 1008 0 2 -- Chart
1961 7 8 06 12.5 140.1 1008 0 2 -- Chart
1961 7 8 12 13.0 139.5 1008 0 2 -- Chart
1961 7 8 18 13.7 139.0 1008 0 2 -- Chart
1961 7 9 00 14.0 137.3 1008 0 2 -- Chart
1961 7 9 06 14.0 135.8 1008 0 2 -- Chart
1961 7 9 12 13.6 134.0 1008 0 2 -- Chart
1961 7 9 18 13.7 132.3 1008 0 2 -- Chart
1961 7 10 00 14.1 131.0 1008 0 2 -- Chart
1961 7 10 06 15.0 130.0 1008 0 2 -- Chart
1961 7 10 12 16.0 128.7 1008 0 2 -- Chart
1961 7 10 18 16.6 126.8 1006 0 2 -- Chart
1961 7 11 00 17.2 125.5 1006 0 2 -- Chart
1961 7 11 06 18.1 124.5 1006 0 2 -- Chart
1961 7 11 12 19.5 124.0 1004 0 2 -- Chart
1961 7 11 18 19.9 123.8 1002 0 2 -- Chart
1961 7 12 00 20.1 123.7 1000 0 2 -- Chart
1961 7 12 06 20.3 123.5 1000 0 2 -- Chart
1961 7 12 12 20.6 123.3 996 0 9 -- Chart
1961 7 12 18 21.0 123.0 990 0 9 -- Chart
1961 7 13 00 21.4 122.5 985 0 9 -- Chart
1961 7 13 06 21.7 121.9 975 0 9 -- Chart
1961 7 13 12 21.8 121.2 975 0 9 -- Chart
1961 7 13 18 21.9 120.8 975 0 9 -- Chart
1961 7 14 00 22.0 120.0 985 0 9 -- Chart
1961 7 14 06 22.4 119.3 985 0 9 -- Chart
1961 7 14 12 22.9 118.8 990 0 9 -- Chart
1961 7 14 18 23.0 117.7 990 0 9 -- Chart
1961 7 15 00 23.2 116.2 994 0 2 -- Chart
1961 7 15 06 24.0 115.3 994 0 2 -- Chart
1961 7 15 12 25.3 114.0 996 0 2 -- Chart
1961 7 15 18 26.5 112.6 998 0 2 -- Chart
1961 7 16 00 27.0 112.0 1000 0 2 -- Chart
Japan Meteorological Agency Best Track Data | Correction Date : 1989-06-01
< Typhoon 196107 1961 Season Typhoon 196109 >

Help